Time;durP1;ratioP1;P1;durP2;ratioP2;P2;SDS_P1;SDS_P2;PMS_P1;PMS_P2;Temp;Humidity;BMP_temperature;BMP_pressure;BME280_temperature;BME280_humidity;BME280_pressure;Samples;Min_cycle;Max_cycle;Signal;HPM_P1;HPM_P2
2021/09/01 00:00:21;;;;;;;12.25;3.20;;;;;;;16.21;66.96;102995.78;5062470;28;20372;-62
2021/09/01 00:02:47;;;;;;;14.13;3.63;;;;;;;16.26;66.41;102994.06;5064321;28;20044;-62
2021/09/01 00:05:12;;;;;;;11.15;3.22;;;;;;;16.31;65.25;102995.00;5065794;28;20059;-61
2021/09/01 00:07:38;;;;;;;14.38;4.13;;;;;;;16.28;65.57;102994.97;5063961;28;20041;-61
2021/09/01 00:10:05;;;;;;;12.90;4.22;;;;;;;16.23;65.63;102993.13;5066198;28;20108;-61
2021/09/01 00:12:31;;;;;;;10.75;3.03;;;;;;;16.21;65.75;102995.78;5066215;28;20088;-62
2021/09/01 00:14:57;;;;;;;13.52;4.20;;;;;;;16.16;65.72;102989.53;5065969;28;20420;-62
2021/09/01 00:17:23;;;;;;;14.57;3.65;;;;;;;16.14;66.29;102991.28;5065258;28;20090;-62
2021/09/01 00:19:48;;;;;;;12.52;3.70;;;;;;;16.16;65.50;102992.19;5065608;28;20035;-62
2021/09/01 00:22:14;;;;;;;15.18;3.88;;;;;;;16.18;65.49;102991.34;5066389;28;20060;-61
2021/09/01 00:24:39;;;;;;;12.43;4.05;;;;;;;16.18;65.71;102993.06;5065490;28;20040;-61
2021/09/01 00:27:04;;;;;;;15.52;3.75;;;;;;;16.21;64.47;102993.13;5066251;28;20089;-62
2021/09/01 00:29:30;;;;;;;12.73;3.60;;;;;;;16.14;65.31;102994.84;5065381;28;20044;-62
2021/09/01 00:31:56;;;;;;;9.93;3.17;;;;;;;16.18;63.54;102996.66;5065986;28;20067;-61
2021/09/01 00:34:21;;;;;;;12.52;3.67;;;;;;;16.22;63.45;102992.25;5069422;28;20025;-62
2021/09/01 00:36:46;;;;;;;12.07;3.78;;;;;;;16.21;63.50;102987.81;5064566;28;20101;-62
2021/09/01 00:39:12;;;;;;;11.00;3.45;;;;;;;16.16;63.67;102994.84;5062168;28;20032;-62
2021/09/01 00:41:37;;;;;;;12.75;3.65;;;;;;;16.21;62.69;102990.47;5065354;28;20041;-62
2021/09/01 00:44:23;;;;;;;13.60;4.05;;;;;;;16.20;62.54;102991.34;5065490;28;20052;-63
2021/09/01 00:46:50;;;;;;;14.05;3.55;;;;;;;16.21;62.58;102993.13;5065295;28;20039;-62
2021/09/01 00:49:16;;;;;;;12.55;4.03;;;;;;;16.23;62.29;102994.03;5065344;28;20047;-62
2021/09/01 00:51:46;;;;;;;13.65;3.85;;;;;;;16.20;62.94;102988.72;5063449;28;20033;-61
2021/09/01 00:54:17;;;;;;;13.05;4.00;;;;;;;16.23;62.69;102983.41;5065584;28;20032;-61
2021/09/01 00:56:45;;;;;;;11.90;4.10;;;;;;;16.17;63.21;102989.53;5064973;28;20028;-61
2021/09/01 00:59:15;;;;;;;9.13;3.60;;;;;;;16.09;64.14;102985.94;5065315;28;20037;-61
2021/09/01 01:01:46;;;;;;;14.45;4.20;;;;;;;16.08;63.81;102989.47;5063529;28;20029;-61
2021/09/01 01:04:12;;;;;;;13.27;3.38;;;;;;;16.10;64.28;102985.06;5064417;28;20049;-62
2021/09/01 01:06:37;;;;;;;11.57;3.63;;;;;;;16.14;64.50;102991.28;5064503;28;20384;-61
2021/09/01 01:09:03;;;;;;;10.18;3.90;;;;;;;16.10;64.51;102984.19;5065693;28;20076;-62
2021/09/01 01:11:28;;;;;;;16.40;3.40;;;;;;;16.10;64.15;102989.47;5064712;28;20048;-62
2021/09/01 01:13:54;;;;;;;10.50;3.67;;;;;;;16.16;63.94;102992.19;5060070;28;20416;-61
2021/09/01 01:16:22;;;;;;;10.68;3.67;;;;;;;16.18;64.02;102985.13;5065553;28;20039;-61
2021/09/01 01:18:53;;;;;;;10.68;3.55;;;;;;;16.12;63.70;102991.28;5064615;28;20112;-62
2021/09/01 01:21:26;;;;;;;9.98;3.20;;;;;;;16.13;63.32;102993.06;5062814;28;20187;-61
2021/09/01 01:23:59;;;;;;;9.15;3.35;;;;;;;16.14;63.29;102983.31;5064856;28;20045;-61
2021/09/01 01:26:26;;;;;;;8.63;2.88;;;;;;;16.18;62.18;102985.13;5065152;28;20051;-61
2021/09/01 01:29:01;;;;;;;8.82;3.03;;;;;;;16.21;61.15;102989.59;5064592;28;20029;-61
2021/09/01 01:31:27;;;;;;;12.32;3.05;;;;;;;16.14;62.23;102986.88;5064884;28;20105;-62
2021/09/01 01:33:53;;;;;;;11.80;3.08;;;;;;;16.04;62.36;102984.13;5064870;28;20037;-61
2021/09/01 01:36:19;;;;;;;9.43;3.13;;;;;;;16.02;61.66;102992.06;5065211;28;20032;-61
2021/09/01 01:38:44;;;;;;;6.45;2.42;;;;;;;16.03;60.99;102988.56;5063283;28;20036;-61
2021/09/01 01:41:10;;;;;;;8.50;2.53;;;;;;;16.03;61.17;102985.91;5063205;28;20024;-61
2021/09/01 01:43:38;;;;;;;13.02;3.55;;;;;;;15.92;62.53;102985.78;5063973;28;20047;-62
2021/09/01 01:46:06;;;;;;;9.38;2.72;;;;;;;15.85;62.66;102986.59;5063936;28;20057;-61
2021/09/01 01:48:31;;;;;;;10.75;3.45;;;;;;;15.81;62.87;102987.44;5063757;28;20088;-61
2021/09/01 01:50:57;;;;;;;9.23;3.03;;;;;;;15.81;63.02;102983.91;5064380;28;20033;-61
2021/09/01 01:53:22;;;;;;;12.60;3.15;;;;;;;15.83;62.52;102985.69;5063948;28;20036;-62
2021/09/01 01:55:48;;;;;;;8.15;3.13;;;;;;;15.77;63.41;102981.19;5064469;28;20040;-62
2021/09/01 01:58:13;;;;;;;9.98;3.10;;;;;;;15.78;63.29;102976.78;5064135;28;20039;-61
2021/09/01 02:00:39;;;;;;;7.28;3.35;;;;;;;15.73;63.80;102982.03;5063273;28;20029;-62
2021/09/01 02:03:06;;;;;;;12.32;3.60;;;;;;;15.68;64.52;102981.06;5064736;28;20029;-62
2021/09/01 02:05:31;;;;;;;12.80;3.80;;;;;;;15.67;64.65;102981.03;5064017;28;20036;-62
2021/09/01 02:07:56;;;;;;;11.02;3.95;;;;;;;15.66;64.82;102982.81;5061869;28;20033;-62
2021/09/01 02:10:22;;;;;;;14.30;3.72;;;;;;;15.65;65.08;102980.13;5063811;28;20496;-62
2021/09/01 02:12:48;;;;;;;9.95;3.65;;;;;;;15.65;64.42;102988.09;5063602;28;20048;-61
2021/09/01 02:15:14;;;;;;;10.13;3.20;;;;;;;15.64;64.66;102978.38;5063395;28;20337;-60
2021/09/01 02:17:40;;;;;;;13.70;3.45;;;;;;;15.63;65.75;102985.41;5063275;28;20033;-61
2021/09/01 02:20:07;;;;;;;9.30;3.47;;;;;;;15.59;66.66;102981.88;5063449;28;20067;-61
2021/09/01 02:22:33;;;;;;;8.95;3.38;;;;;;;15.56;67.31;102981.81;5063369;28;20064;-62
2021/09/01 02:24:58;;;;;;;12.55;3.33;;;;;;;15.54;65.77;102978.28;5058153;28;20037;-62
2021/09/01 02:27:24;;;;;;;14.15;4.28;;;;;;;15.53;68.33;102979.13;5064471;28;20121;-62
2021/09/01 02:29:49;;;;;;;10.85;3.85;;;;;;;15.50;68.32;102976.47;5062705;28;20047;-61
2021/09/01 02:32:15;;;;;;;12.55;3.55;;;;;;;15.48;68.56;102982.59;5063343;28;20033;-61
2021/09/01 02:34:40;;;;;;;9.63;3.50;;;;;;;15.46;69.49;102985.22;5063875;28;20033;-61
2021/09/01 02:37:06;;;;;;;10.90;3.50;;;;;;;15.44;69.17;102983.44;5061821;28;20033;-61
2021/09/01 02:39:31;;;;;;;9.80;3.38;;;;;;;15.42;69.19;102986.06;5061213;28;20044;-61
2021/09/01 02:41:57;;;;;;;11.88;3.85;;;;;;;15.44;69.88;102983.44;5062653;28;20029;-60
2021/09/01 02:44:22;;;;;;;10.68;3.95;;;;;;;15.42;68.70;102982.53;5063413;28;20496;-61
2021/09/01 02:46:47;;;;;;;10.63;4.07;;;;;;;15.40;67.75;102982.50;5063339;28;20041;-61
2021/09/01 02:49:13;;;;;;;12.52;3.42;;;;;;;15.40;69.72;102982.50;5061720;28;20045;-61
2021/09/01 02:51:39;;;;;;;12.80;3.53;;;;;;;15.39;70.39;102981.63;5062543;28;20033;-61
2021/09/01 02:54:04;;;;;;;13.05;3.67;;;;;;;15.39;69.94;102991.34;5063151;28;20032;-61
2021/09/01 02:56:30;;;;;;;11.95;3.83;;;;;;;15.36;69.88;102986.00;5063125;28;20033;-61
2021/09/01 02:58:55;;;;;;;10.77;3.67;;;;;;;15.35;70.28;102986.88;5062519;28;20067;-63
2021/09/01 03:01:21;;;;;;;11.13;3.80;;;;;;;15.33;70.62;102991.22;5062755;28;20468;-61
2021/09/01 03:03:47;;;;;;;11.02;3.72;;;;;;;15.32;70.67;102985.06;5062798;28;20029;-62
2021/09/01 03:06:12;;;;;;;9.68;3.60;;;;;;;15.32;70.91;102982.41;5063736;28;20048;-62
2021/09/01 03:08:37;;;;;;;10.93;3.60;;;;;;;15.31;70.59;102979.72;5062331;28;20060;-62
2021/09/01 03:11:03;;;;;;;8.43;3.08;;;;;;;15.30;71.25;102978.84;5060734;28;20039;-62
2021/09/01 03:13:28;;;;;;;11.85;3.97;;;;;;;15.29;71.68;102974.44;5062641;28;20033;-61
2021/09/01 03:15:54;;;;;;;11.75;4.25;;;;;;;15.28;71.43;102974.41;5063482;28;20053;-61
2021/09/01 03:18:19;;;;;;;10.45;3.70;;;;;;;15.29;71.12;102973.53;5062554;28;20096;-61
2021/09/01 03:20:44;;;;;;;8.65;3.30;;;;;;;15.27;70.88;102972.63;5063588;28;20029;-61
2021/09/01 03:23:10;;;;;;;10.55;3.72;;;;;;;15.26;71.51;102979.69;5063300;28;20036;-61
2021/09/01 03:25:35;;;;;;;15.18;4.13;;;;;;;15.24;72.16;102975.25;5063203;28;20033;-61
2021/09/01 03:28:00;;;;;;;9.32;3.60;;;;;;;15.23;71.97;102973.47;5061221;28;20498;-64
2021/09/01 03:30:27;;;;;;;9.73;3.63;;;;;;;15.21;71.79;102970.78;5062423;28;20045;-62
2021/09/01 03:32:53;;;;;;;10.30;3.70;;;;;;;15.20;72.14;102977.84;5059776;28;20108;-61
2021/09/01 03:35:19;;;;;;;9.57;3.70;;;;;;;15.21;72.51;102971.66;5063019;28;20032;-61
2021/09/01 03:37:44;;;;;;;12.52;3.97;;;;;;;15.23;70.58;102969.03;5063489;28;20040;-61
2021/09/01 03:40:10;;;;;;;12.27;3.38;;;;;;;15.23;70.89;102976.09;5064019;28;20461;-61
2021/09/01 03:42:35;;;;;;;10.13;4.22;;;;;;;15.22;71.73;102980.53;5066789;28;20058;-61
2021/09/01 03:45:01;;;;;;;12.80;3.40;;;;;;;15.23;69.35;102978.75;5066892;28;20106;-61
2021/09/01 03:47:26;;;;;;;13.45;3.53;;;;;;;15.24;70.99;102981.44;5067026;28;20029;-61
2021/09/01 03:49:52;;;;;;;11.85;3.80;;;;;;;15.24;70.87;102970.84;5065751;28;20114;-60
2021/09/01 03:52:18;;;;;;;11.13;3.92;;;;;;;15.24;72.03;102969.97;5066313;28;20025;-62
2021/09/01 03:54:43;;;;;;;9.57;3.67;;;;;;;15.24;72.11;102968.19;5066193;28;20045;-61
2021/09/01 03:57:08;;;;;;;10.65;3.33;;;;;;;15.23;68.88;102969.03;5066662;28;20087;-61
2021/09/01 03:59:34;;;;;;;9.77;4.05;;;;;;;15.27;71.46;102976.16;5065858;28;20055;-62
2021/09/01 04:01:59;;;;;;;12.32;4.18;;;;;;;15.25;71.50;102969.94;5064274;28;20033;-61
2021/09/01 04:04:24;;;;;;;12.77;3.80;;;;;;;15.22;72.77;102975.22;5066001;28;20029;-62
2021/09/01 04:06:50;;;;;;;14.13;3.42;;;;;;;15.19;71.72;102978.72;5066472;28;20048;-61
2021/09/01 04:09:15;;;;;;;10.45;3.90;;;;;;;15.19;73.21;102978.72;5063141;28;20435;-61
2021/09/01 04:11:41;;;;;;;7.50;3.42;;;;;;;15.19;72.99;102975.19;5065220;28;20384;-61
2021/09/01 04:14:06;;;;;;;10.68;3.75;;;;;;;15.15;71.94;102974.25;5065945;28;20040;-61
2021/09/01 04:16:32;;;;;;;9.48;3.38;;;;;;;15.15;73.95;102970.72;5066162;28;20102;-61
2021/09/01 04:18:57;;;;;;;12.55;3.63;;;;;;;15.14;72.03;102971.56;5065600;28;20061;-62
2021/09/01 04:21:22;;;;;;;9.50;3.78;;;;;;;15.12;72.44;102970.66;5066589;28;20033;-61
2021/09/01 04:23:48;;;;;;;11.30;3.67;;;;;;;15.11;72.91;102972.44;5066152;28;20029;-62
2021/09/01 04:26:13;;;;;;;9.60;3.42;;;;;;;15.10;73.88;102973.28;5065244;28;20412;-62
2021/09/01 04:28:38;;;;;;;10.90;3.70;;;;;;;15.10;73.50;102975.06;5065078;28;20043;-62
2021/09/01 04:31:04;;;;;;;12.63;3.80;;;;;;;15.10;74.45;102975.94;5065075;28;20041;-62
2021/09/01 04:33:29;;;;;;;10.73;3.33;;;;;;;15.09;73.33;102979.47;5066019;28;20059;-61
2021/09/01 04:35:55;;;;;;;13.45;4.20;;;;;;;15.09;74.99;102974.16;5066665;28;20029;-61
2021/09/01 04:38:20;;;;;;;13.00;3.90;;;;;;;15.10;74.71;102972.41;5065282;28;20037;-62
2021/09/01 04:40:46;;;;;;;13.77;3.45;;;;;;;15.07;74.31;102981.22;5063294;28;20029;-62
2021/09/01 04:43:11;;;;;;;13.38;4.13;;;;;;;15.06;74.62;102981.19;5065578;28;20029;-62
2021/09/01 04:45:36;;;;;;;6.32;3.45;;;;;;;15.07;74.53;102982.97;5063481;28;20029;-61
2021/09/01 04:48:02;;;;;;;13.50;4.57;;;;;;;15.05;74.63;102982.94;5064920;28;20105;-61
2021/09/01 04:50:27;;;;;;;11.73;4.47;;;;;;;15.08;74.61;102979.44;5064403;28;20123;-61
2021/09/01 04:52:53;;;;;;;9.40;3.78;;;;;;;15.06;73.20;102976.75;5064844;28;20025;-61
2021/09/01 04:55:18;;;;;;;12.52;3.70;;;;;;;15.09;71.98;102979.47;5065283;28;20032;-62
2021/09/01 04:57:44;;;;;;;11.32;3.90;;;;;;;15.12;73.90;102987.47;5065973;28;20044;-62
2021/09/01 05:00:11;;;;;;;13.75;4.03;;;;;;;15.13;72.81;102981.28;5064311;28;20048;-61
2021/09/01 05:02:37;;;;;;;9.55;3.50;;;;;;;15.17;71.38;102980.44;5065133;28;20028;-61
2021/09/01 05:05:03;;;;;;;11.25;3.97;;;;;;;15.21;69.50;102982.25;5065072;28;20037;-61
2021/09/01 05:07:28;;;;;;;10.50;4.40;;;;;;;15.26;71.77;102986.75;5065165;28;20064;-62
2021/09/01 05:09:54;;;;;;;10.52;4.22;;;;;;;15.25;72.24;102982.31;5062380;28;20424;-61
2021/09/01 05:12:19;;;;;;;10.48;3.70;;;;;;;15.23;73.03;102986.69;5063784;28;20112;-61
2021/09/01 05:14:45;;;;;;;9.93;3.85;;;;;;;15.20;73.31;102987.56;5064004;28;20037;-61
2021/09/01 05:17:10;;;;;;;10.30;3.65;;;;;;;15.20;74.87;102988.44;5063246;28;20063;-62
2021/09/01 05:19:35;;;;;;;12.52;4.53;;;;;;;15.20;73.71;102985.78;5060699;28;20041;-62
2021/09/01 05:22:05;;;;;;;9.48;3.78;;;;;;;15.20;72.96;102987.56;5057180;28;20049;-63
2021/09/01 05:24:42;;;;;;;10.65;3.50;;;;;;;15.20;73.66;102985.78;5060785;28;20052;-62
2021/09/01 05:27:17;;;;;;;10.57;3.85;;;;;;;15.20;73.72;102990.22;5065163;28;20046;-62
2021/09/01 05:29:44;;;;;;;10.02;3.63;;;;;;;15.20;74.69;102995.50;5062096;28;20037;-62
2021/09/01 05:32:16;;;;;;;11.63;4.05;;;;;;;15.18;74.64;102992.84;5059765;28;20111;-62
2021/09/01 05:34:42;;;;;;;11.48;4.00;;;;;;;15.17;74.06;102995.47;5062760;28;20017;-62
2021/09/01 05:37:10;;;;;;;11.10;3.88;;;;;;;15.16;74.19;102993.66;5061751;28;20397;-62
2021/09/01 05:39:35;;;;;;;11.38;3.88;;;;;;;15.16;71.48;102999.88;5061697;28;20029;-62
2021/09/01 05:42:01;;;;;;;17.02;4.18;;;;;;;15.21;71.74;102992.84;5060785;28;20071;-63
2021/09/01 05:44:27;;;;;;;8.93;3.75;;;;;;;15.26;73.31;102997.34;5061723;28;20041;-62
2021/09/01 05:46:53;;;;;;;10.05;3.40;;;;;;;15.29;74.08;102998.28;5061498;28;20354;-60
2021/09/01 05:49:21;;;;;;;11.45;3.28;;;;;;;15.32;74.55;103002.72;5063217;28;20028;-61
2021/09/01 05:51:48;;;;;;;10.50;3.80;;;;;;;15.32;73.46;103000.06;5062097;28;20033;-62
2021/09/01 05:54:14;;;;;;;12.63;3.33;;;;;;;15.37;73.06;102987.78;5064389;28;20025;-62
2021/09/01 05:56:44;;;;;;;11.38;3.80;;;;;;;15.40;73.02;102990.44;5062287;28;20466;-61
2021/09/01 05:59:13;;;;;;;9.82;3.72;;;;;;;15.42;74.53;102994.00;5058777;28;20036;-61
2021/09/01 06:01:50;;;;;;;8.68;3.08;;;;;;;15.46;74.40;103000.22;5060452;28;20040;-60
2021/09/01 06:04:17;;;;;;;9.25;3.42;;;;;;;15.47;73.82;103002.91;5051217;28;20155;-60
2021/09/01 06:06:49;;;;;;;11.02;3.55;;;;;;;15.48;73.96;103001.13;5063291;28;20067;-60
2021/09/01 06:09:14;;;;;;;9.27;3.40;;;;;;;15.48;75.24;103002.06;5064382;28;20049;-60
2021/09/01 06:11:43;;;;;;;9.93;3.83;;;;;;;15.46;75.09;102997.59;5062896;28;20025;-61
2021/09/01 06:14:09;;;;;;;9.05;3.22;;;;;;;15.46;75.27;102998.47;5062814;28;20021;-60
2021/09/01 06:16:34;;;;;;;14.25;3.90;;;;;;;15.46;75.72;103003.75;5063619;28;20141;-61
2021/09/01 06:19:00;;;;;;;10.55;3.53;;;;;;;15.48;74.52;103006.44;5063450;28;20490;-61
2021/09/01 06:21:26;;;;;;;8.98;3.45;;;;;;;15.46;76.06;103009.06;5064159;28;20453;-61
2021/09/01 06:23:53;;;;;;;13.52;3.92;;;;;;;15.49;75.01;103014.41;5049229;28;20115;-61
2021/09/01 06:26:19;;;;;;;11.88;3.42;;;;;;;15.52;70.14;103003.88;5063276;28;20028;-61
2021/09/01 06:28:44;;;;;;;10.20;3.13;;;;;;;15.56;70.32;103016.28;5060282;28;20059;-62
2021/09/01 06:31:09;;;;;;;9.60;3.03;;;;;;;15.58;71.68;103014.53;5063037;28;20025;-63
2021/09/01 06:33:35;;;;;;;11.15;3.72;;;;;;;15.57;72.76;103014.50;5063599;28;20032;-62
2021/09/01 06:36:00;;;;;;;9.95;3.33;;;;;;;15.53;72.74;103016.22;5063580;28;20037;-62
2021/09/01 06:38:26;;;;;;;8.38;3.28;;;;;;;15.52;73.71;103025.06;5063574;28;20049;-62
2021/09/01 06:40:51;;;;;;;8.00;3.33;;;;;;;15.53;73.95;103025.94;5060360;28;20101;-63
2021/09/01 06:43:17;;;;;;;6.53;3.17;;;;;;;15.52;75.27;103016.19;5061835;28;20244;-62
2021/09/01 06:45:44;;;;;;;8.25;3.25;;;;;;;15.51;74.33;103023.25;5062670;28;20036;-62
2021/09/01 06:48:10;;;;;;;10.07;3.67;;;;;;;15.53;74.21;103016.22;5060859;28;20041;-61
2021/09/01 06:50:36;;;;;;;58.80;7.72;;;;;;;15.55;75.48;103024.19;5056771;28;20035;-63
2021/09/01 06:53:01;;;;;;;122.15;14.65;;;;;;;15.56;75.81;103018.03;5060113;28;20074;-61
2021/09/01 06:55:26;;;;;;;60.03;8.88;;;;;;;15.56;74.18;103023.34;5061304;28;20112;-62
2021/09/01 06:57:52;;;;;;;35.72;6.13;;;;;;;15.56;74.09;103016.28;5063031;28;20085;-62
2021/09/01 07:00:19;;;;;;;22.65;4.20;;;;;;;15.58;71.82;103017.19;5062945;28;20040;-63
2021/09/01 07:02:45;;;;;;;10.07;3.28;;;;;;;15.58;70.59;103027.78;5063048;28;20043;-62
2021/09/01 07:05:12;;;;;;;8.23;3.05;;;;;;;15.59;70.38;103021.63;5056750;28;20025;-61
2021/09/01 07:07:38;;;;;;;13.90;3.80;;;;;;;15.60;71.95;103020.72;5064795;28;20075;-62
2021/09/01 07:10:03;;;;;;;11.20;3.50;;;;;;;15.59;72.34;103023.34;5068356;28;20032;-61
2021/09/01 07:12:29;;;;;;;7.25;3.10;;;;;;;15.58;73.00;103021.59;5072023;28;20087;-61
2021/09/01 07:14:55;;;;;;;10.93;3.45;;;;;;;15.58;72.48;103029.53;5070023;28;20056;-61
2021/09/01 07:17:20;;;;;;;12.70;3.38;;;;;;;15.61;72.14;103026.91;5069932;28;20025;-62
2021/09/01 07:19:45;;;;;;;7.05;2.88;;;;;;;15.62;71.58;103039.31;5078631;28;20349;-63
2021/09/01 07:22:11;;;;;;;7.63;2.85;;;;;;;15.58;72.43;103032.19;5067037;28;20029;-62
2021/09/01 07:24:37;;;;;;;10.15;2.90;;;;;;;15.57;71.47;103039.22;5085667;28;20032;-62
2021/09/01 07:27:03;;;;;;;9.07;2.90;;;;;;;15.55;73.25;103040.09;5070759;28;20048;-63
2021/09/01 07:29:28;;;;;;;79.80;9.25;;;;;;;15.52;73.20;103046.25;5069324;28;20036;-63
2021/09/01 07:31:54;;;;;;;149.55;16.27;;;;;;;15.53;74.21;103044.50;5063798;28;20087;-62
2021/09/01 07:34:19;;;;;;;72.25;8.90;;;;;;;15.52;75.08;103051.56;5068827;28;20056;-63
2021/09/01 07:36:44;;;;;;;12.32;3.65;;;;;;;15.51;74.63;103055.06;5066433;28;20033;-62
2021/09/01 07:39:10;;;;;;;187.43;25.65;;;;;;;15.56;73.67;103056.00;5065354;28;20063;-62
2021/09/01 07:41:37;;;;;;;192.07;21.65;;;;;;;15.55;74.89;103056.00;5068900;28;20025;-63
2021/09/01 07:44:06;;;;;;;20.05;4.05;;;;;;;15.57;74.89;103060.44;5063828;28;20021;-62
2021/09/01 07:46:32;;;;;;;9.07;4.17;;;;;;;15.57;75.39;103067.50;5067339;28;20033;-63
2021/09/01 07:49:00;;;;;;;11.13;2.78;;;;;;;15.57;75.55;103068.38;5067167;28;20131;-62
2021/09/01 07:51:26;;;;;;;11.32;3.55;;;;;;;15.58;76.66;103075.47;5063946;28;20140;-62
2021/09/01 07:53:51;;;;;;;14.63;3.72;;;;;;;15.53;77.88;103077.16;5063703;28;20108;-62
2021/09/01 07:56:16;;;;;;;9.60;3.30;;;;;;;15.54;77.62;103073.66;5067699;28;20059;-61
2021/09/01 07:58:42;;;;;;;10.15;3.40;;;;;;;15.53;78.56;103070.97;5068332;28;20040;-61
2021/09/01 08:01:07;;;;;;;9.57;3.13;;;;;;;15.54;77.79;103070.13;5069169;28;20044;-62
2021/09/01 08:03:33;;;;;;;15.68;3.55;;;;;;;15.62;77.53;103075.53;5068113;28;20092;-62
2021/09/01 08:05:59;;;;;;;12.50;3.83;;;;;;;15.74;77.21;103078.34;5066908;28;20033;-62
2021/09/01 08:08:25;;;;;;;10.95;3.30;;;;;;;15.90;77.41;103082.97;5067851;28;20033;-63
2021/09/01 08:10:50;;;;;;;11.77;3.13;;;;;;;16.06;76.22;103085.78;5069039;28;20044;-62
2021/09/01 08:13:16;;;;;;;13.07;3.42;;;;;;;16.20;75.48;103085.94;5066988;28;20412;-62
2021/09/01 08:15:41;;;;;;;12.75;3.13;;;;;;;16.42;72.68;103087.06;5068544;28;20112;-63
2021/09/01 08:18:06;;;;;;;6.50;1.95;;;;;;;16.57;72.27;103084.53;5069321;28;20185;-62
2021/09/01 08:20:32;;;;;;;10.25;2.95;;;;;;;16.71;70.84;103084.66;5067667;28;20040;-63
2021/09/01 08:22:57;;;;;;;7.50;2.10;;;;;;;16.73;71.68;103091.78;5063286;28;20052;-62
2021/09/01 08:25:23;;;;;;;7.50;1.90;;;;;;;16.79;70.82;103090.94;5065404;28;20112;-63
2021/09/01 08:27:48;;;;;;;5.80;1.98;;;;;;;16.96;68.13;103080.47;5066177;28;20037;-63
2021/09/01 08:30:15;;;;;;;8.50;1.70;;;;;;;16.94;68.38;103087.53;5066208;28;20098;-63
2021/09/01 08:32:41;;;;;;;8.32;1.95;;;;;;;16.99;69.31;103095.53;5063033;28;20103;-62
2021/09/01 08:35:07;;;;;;;61.25;8.30;;;;;;;17.05;68.88;103093.81;5063282;28;20060;-63
2021/09/01 08:37:32;;;;;;;8.13;2.00;;;;;;;17.14;67.53;103101.84;5064789;28;20036;-62
2021/09/01 08:40:00;;;;;;;4.60;1.58;;;;;;;17.25;66.01;103103.69;5062096;28;20036;-63
2021/09/01 08:42:26;;;;;;;5.03;1.80;;;;;;;17.13;67.21;103102.72;5061938;28;20028;-62
2021/09/01 08:44:51;;;;;;;9.38;2.45;;;;;;;17.08;67.92;103099.13;5055238;28;20033;-62
2021/09/01 08:47:17;;;;;;;5.28;2.05;;;;;;;17.10;69.56;103108.00;5060833;28;20132;-62
2021/09/01 08:49:46;;;;;;;7.60;2.10;;;;;;;17.15;69.19;103106.28;5063314;28;20032;-63
2021/09/01 08:52:12;;;;;;;3.55;1.80;;;;;;;17.12;68.91;103108.91;5061633;28;20025;-63
2021/09/01 08:54:37;;;;;;;3.80;1.20;;;;;;;17.13;68.47;103105.38;5063064;28;20036;-63
2021/09/01 08:57:03;;;;;;;3.35;1.30;;;;;;;17.04;70.32;103109.75;5062753;28;20140;-63
2021/09/01 08:59:28;;;;;;;2.85;1.73;;;;;;;17.01;69.48;103109.72;5065517;28;20052;-63
2021/09/01 09:01:55;;;;;;;4.32;1.60;;;;;;;16.99;68.88;103115.00;5068901;28;20021;-64
2021/09/01 09:04:21;;;;;;;8.02;2.10;;;;;;;16.82;71.03;103103.31;5065559;28;20025;-62
2021/09/01 09:06:51;;;;;;;4.88;1.55;;;;;;;16.80;71.49;103105.09;5064871;28;20029;-62
2021/09/01 09:09:26;;;;;;;;;;;;;;;16.73;73.50;103107.69;5062837;28;20059;-63
2021/09/01 09:11:53;;;;;;;4.43;1.45;;;;;;;16.84;70.95;103106.91;5061370;28;19941;-63
2021/09/01 09:14:21;;;;;;;4.97;2.03;;;;;;;16.80;71.38;103092.69;5065695;28;20159;-63
2021/09/01 09:16:59;;;;;;;5.30;2.00;;;;;;;16.86;71.28;103098.09;5061080;28;20057;-63
2021/09/01 09:20:06;;;;;;;6.93;1.98;;;;;;;16.85;70.07;103098.09;5064502;28;20100;-62
2021/09/01 09:22:41;;;;;;;7.93;2.20;;;;;;;16.82;70.04;103104.25;5026554;28;20025;-64
2021/09/01 09:25:12;;;;;;;5.20;2.10;;;;;;;16.84;70.28;103101.59;5040042;28;20076;-61
2021/09/01 09:27:44;;;;;;;5.95;1.95;;;;;;;17.02;69.50;103104.41;5042879;28;20068;-65
2021/09/01 09:30:21;;;;;;;6.15;2.45;;;;;;;17.11;67.95;103099.16;5043521;28;20076;-62
2021/09/01 09:33:11;;;;;;;7.28;2.40;;;;;;;17.21;67.56;103099.22;5042889;28;20038;-60
2021/09/01 09:35:47;;;;;;;3.65;1.73;;;;;;;17.33;66.77;103096.63;5041651;28;20029;-64
2021/09/01 09:38:13;;;;;;;4.97;1.58;;;;;;;17.43;66.05;103100.22;5040019;28;20095;-63
2021/09/01 09:40:39;;;;;;;5.57;2.13;;;;;;;17.76;66.79;103098.63;5038687;28;20045;-66
2021/09/01 09:43:15;;;;;;;2.75;1.55;;;;;;;18.10;63.27;103094.34;5042288;28;20083;-61
2021/09/01 09:45:40;;;;;;;2.60;1.63;;;;;;;18.34;64.66;103096.19;5042074;28;20075;-60
2021/09/01 09:48:06;;;;;;;1.67;1.38;;;;;;;18.62;61.05;103098.84;5042019;28;20018;-62
2021/09/01 09:50:32;;;;;;;3.35;1.60;;;;;;;18.60;62.45;103093.56;5042119;28;20029;-62
2021/09/01 09:52:57;;;;;;;6.93;1.80;;;;;;;18.72;61.09;103095.31;5048165;28;20116;-61
2021/09/01 09:55:23;;;;;;;5.22;1.77;;;;;;;18.54;62.01;103082.00;5063073;28;20025;-62
2021/09/01 09:58:00;;;;;;;4.35;1.67;;;;;;;18.45;61.54;103091.78;5061069;28;20047;-62
2021/09/01 10:00:27;;;;;;;6.20;1.40;;;;;;;18.44;61.35;103094.41;5054925;28;20485;-62
2021/09/01 10:02:52;;;;;;;5.05;1.60;;;;;;;18.65;60.43;103096.22;5048253;28;20041;-61
2021/09/01 10:05:19;;;;;;;4.65;1.77;;;;;;;18.56;60.49;103083.75;5057934;28;20036;-61
2021/09/01 10:07:46;;;;;;;2.65;1.30;;;;;;;18.42;61.56;103088.22;5063265;28;20045;-62
2021/09/01 10:10:12;;;;;;;2.95;1.40;;;;;;;18.31;62.64;103081.09;5063779;28;20032;-61
2021/09/01 10:12:41;;;;;;;2.70;1.20;;;;;;;18.46;62.13;103074.88;5061660;28;20055;-60
2021/09/01 10:15:10;;;;;;;3.70;1.38;;;;;;;18.61;61.07;103079.34;5063112;28;20040;-61
2021/09/01 10:17:44;;;;;;;2.20;1.25;;;;;;;18.67;61.05;103071.34;5063171;28;20092;-61
2021/09/01 10:20:16;;;;;;;3.25;1.40;;;;;;;18.76;59.99;103072.25;5061948;28;20020;-62
2021/09/01 10:22:42;;;;;;;2.58;1.25;;;;;;;18.93;60.65;103067.81;5063666;28;20514;-61
2021/09/01 10:25:08;;;;;;;3.63;1.45;;;;;;;19.11;58.34;103068.66;5063933;28;20033;-61
2021/09/01 10:27:33;;;;;;;2.65;1.30;;;;;;;19.17;58.07;103061.56;5064011;28;20373;-62
2021/09/01 10:30:07;;;;;;;2.90;1.55;;;;;;;19.12;59.17;103062.47;5063666;28;20068;-63
2021/09/01 10:32:48;;;;;;;1.58;1.30;;;;;;;19.06;58.11;103060.72;5064207;28;20060;-62
2021/09/01 10:37:42;;;;;;;2.23;1.40;;;;;;;19.22;57.42;103065.09;5063813;28;20451;-62
2021/09/01 10:40:11;;;;;;;1.33;1.10;;;;;;;19.19;57.45;103056.25;5060709;28;20301;-62
2021/09/01 10:42:44;;;;;;;3.25;1.10;;;;;;;19.21;58.58;103062.44;5064078;28;20063;-61
2021/09/01 10:45:36;;;;;;;6.18;1.38;;;;;;;19.20;59.70;103064.19;5063588;28;20021;-61
2021/09/01 10:48:08;;;;;;;5.47;1.25;;;;;;;19.19;60.02;103056.25;5044829;28;20106;-61
2021/09/01 10:50:39;;;;;;;1.92;1.20;;;;;;;19.22;58.64;103062.41;5059658;28;20033;-62
2021/09/01 10:53:25;;;;;;;4.07;2.20;;;;;;;19.04;58.92;103058.03;5051684;28;20040;-63
2021/09/01 10:56:00;;;;;;;8.57;1.58;;;;;;;18.85;60.59;103062.50;5060887;28;20084;-62
2021/09/01 10:58:33;;;;;;;5.72;1.42;;;;;;;18.80;61.60;103058.94;5063276;28;20128;-62
2021/09/01 11:01:16;;;;;;;4.63;1.55;;;;;;;18.74;62.92;103060.72;5060485;28;20059;-60
2021/09/01 11:04:02;;;;;;;2.85;1.52;;;;;;;18.73;62.21;103054.47;5062622;28;20423;-61
2021/09/01 11:06:35;;;;;;;3.38;1.60;;;;;;;18.66;62.55;103060.72;5063144;28;20512;-62
2021/09/01 11:09:12;;;;;;;4.30;2.00;;;;;;;18.40;65.42;103063.38;5060164;28;20074;-62
2021/09/01 11:11:41;;;;;;;2.97;1.60;;;;;;;18.23;64.45;103060.69;5061691;28;20050;-62
2021/09/01 11:14:07;;;;;;;2.53;1.55;;;;;;;18.17;65.45;103069.53;5063080;28;20083;-61
2021/09/01 11:16:32;;;;;;;6.80;2.30;;;;;;;18.10;63.99;103060.66;5054588;28;20029;-62
2021/09/01 11:19:12;;;;;;;3.63;1.88;;;;;;;18.09;65.86;103050.00;5061467;28;20029;-62
2021/09/01 11:21:42;;;;;;;;;;;;;;;18.17;64.97;103053.56;5057892;28;20120;-62
2021/09/01 11:24:09;;;;;;;2.75;1.50;;;;;;;18.30;64.40;103058.03;5062079;28;19927;-62